createdAt,value
2017-08-09T00:00:52.585Z,0
2017-08-09T00:01:53.982Z,0
2017-08-09T00:02:55.376Z,0
2017-08-09T00:03:56.771Z,0
2017-08-09T00:04:58.171Z,0
2017-08-09T00:05:59.565Z,0
2017-08-09T00:07:00.964Z,0
2017-08-09T00:08:02.357Z,0
2017-08-09T00:09:03.750Z,0
2017-08-09T00:10:05.145Z,0
2017-08-09T00:11:06.542Z,0
2017-08-09T00:12:07.938Z,0
2017-08-09T00:13:09.332Z,0
2017-08-09T00:14:10.732Z,0
2017-08-09T00:15:12.124Z,0
2017-08-09T00:16:13.519Z,0
2017-08-09T00:17:14.913Z,0
2017-08-09T00:18:16.309Z,0
2017-08-09T00:19:17.705Z,0
2017-08-09T00:20:19.101Z,0
2017-08-09T00:21:20.497Z,0
2017-08-09T00:22:21.891Z,0
2017-08-09T00:23:23.286Z,0
2017-08-09T00:24:24.679Z,0
2017-08-09T00:25:26.076Z,0
2017-08-09T00:26:27.475Z,0
2017-08-09T00:27:28.869Z,0
2017-08-09T00:28:30.272Z,0
2017-08-09T00:29:31.662Z,0
2017-08-09T00:30:33.058Z,0
2017-08-09T00:31:34.452Z,0
2017-08-09T00:32:35.846Z,0
2017-08-09T00:33:37.243Z,0
2017-08-09T00:34:38.637Z,0
2017-08-09T00:35:40.030Z,0
2017-08-09T00:36:41.421Z,0
2017-08-09T00:37:42.816Z,0
2017-08-09T00:38:44.209Z,0
2017-08-09T00:39:45.606Z,0
2017-08-09T00:40:47.001Z,0
2017-08-09T00:41:48.397Z,0
2017-08-09T00:42:49.793Z,0
2017-08-09T00:43:51.182Z,0
2017-08-09T00:44:52.577Z,0
2017-08-09T00:45:53.971Z,0
2017-08-09T00:46:55.366Z,0
2017-08-09T00:47:56.766Z,0
2017-08-09T00:48:58.161Z,0
2017-08-09T00:49:59.556Z,0
2017-08-09T00:51:00.953Z,0
2017-08-09T00:52:02.346Z,0
2017-08-09T00:53:03.741Z,0
2017-08-09T00:54:05.136Z,0
2017-08-09T00:55:06.532Z,0
2017-08-09T00:56:07.928Z,0
2017-08-09T00:57:09.321Z,0
2017-08-09T00:58:10.715Z,0
2017-08-09T00:59:12.107Z,0
2017-08-09T01:00:13.504Z,0
2017-08-09T01:01:14.900Z,0
2017-08-09T01:02:16.295Z,0
2017-08-09T01:03:17.688Z,0
2017-08-09T01:04:19.082Z,0
2017-08-09T01:05:20.476Z,0
2017-08-09T01:06:21.871Z,0
2017-08-09T01:07:23.268Z,0
2017-08-09T01:08:24.661Z,0
2017-08-09T01:09:26.065Z,0
2017-08-09T01:10:27.458Z,0
2017-08-09T01:11:28.850Z,0
2017-08-09T01:12:30.245Z,0
2017-08-09T01:13:31.639Z,0
2017-08-09T01:14:33.067Z,0
2017-08-09T01:15:34.429Z,0
2017-08-09T01:16:35.831Z,0
2017-08-09T01:17:37.226Z,0
2017-08-09T01:18:38.622Z,0
2017-08-09T01:19:40.018Z,0
2017-08-09T01:20:41.411Z,0
2017-08-09T01:21:42.806Z,0
2017-08-09T01:22:44.207Z,0
2017-08-09T01:23:45.605Z,0
2017-08-09T01:24:47.003Z,0
2017-08-09T01:25:48.394Z,0
2017-08-09T01:26:49.791Z,0
2017-08-09T01:27:51.186Z,0
2017-08-09T01:28:52.583Z,0
2017-08-09T01:29:53.983Z,0
2017-08-09T01:30:55.379Z,0
2017-08-09T01:31:56.776Z,0
2017-08-09T01:32:58.170Z,0
2017-08-09T01:33:59.565Z,0
2017-08-09T01:35:00.963Z,0
2017-08-09T01:36:02.357Z,0
2017-08-09T01:37:03.754Z,0
2017-08-09T01:38:05.150Z,0
2017-08-09T01:39:06.547Z,0
2017-08-09T01:40:07.940Z,0
2017-08-09T01:41:09.335Z,0
2017-08-09T01:42:10.731Z,0
2017-08-09T01:43:12.126Z,0
2017-08-09T01:44:13.523Z,0
2017-08-09T01:45:14.921Z,0
2017-08-09T01:46:16.319Z,0
2017-08-09T01:47:17.715Z,0
2017-08-09T01:48:19.109Z,0
2017-08-09T01:49:20.504Z,0
2017-08-09T01:50:21.900Z,0
2017-08-09T01:51:23.293Z,0
2017-08-09T01:52:24.693Z,0
2017-08-09T01:53:26.089Z,0
2017-08-09T01:54:27.484Z,0
2017-08-09T01:55:28.879Z,0
2017-08-09T01:56:30.274Z,0
2017-08-09T01:57:31.672Z,0
2017-08-09T01:58:33.072Z,0
2017-08-09T01:59:34.467Z,0
2017-08-09T02:00:35.864Z,0
2017-08-09T02:01:37.257Z,0
2017-08-09T02:02:38.653Z,0
2017-08-09T02:03:40.050Z,0
2017-08-09T02:04:41.443Z,0
2017-08-09T02:05:42.842Z,0
2017-08-09T02:06:44.242Z,0
2017-08-09T02:07:45.635Z,0
2017-08-09T02:08:47.037Z,0
2017-08-09T02:09:48.426Z,0
2017-08-09T02:10:49.821Z,0
2017-08-09T02:11:51.213Z,0
2017-08-09T02:12:52.610Z,0
2017-08-09T02:13:54.010Z,0
2017-08-09T02:14:55.409Z,0
2017-08-09T02:15:56.803Z,0
2017-08-09T02:16:58.195Z,0
2017-08-09T02:17:59.589Z,0
2017-08-09T02:19:00.943Z,0
2017-08-09T02:20:02.342Z,0
2017-08-09T02:21:03.738Z,0
2017-08-09T02:22:05.134Z,0
2017-08-09T02:23:06.529Z,0
2017-08-09T02:24:07.927Z,0
2017-08-09T02:25:09.321Z,0
2017-08-09T02:26:10.718Z,0
2017-08-09T02:27:12.116Z,0
2017-08-09T02:28:13.515Z,0
2017-08-09T02:29:14.908Z,0
2017-08-09T02:30:16.304Z,0
2017-08-09T02:31:17.704Z,0
2017-08-09T02:32:19.093Z,0
2017-08-09T02:33:20.489Z,0
2017-08-09T02:34:21.884Z,0
2017-08-09T02:35:23.281Z,0
2017-08-09T02:36:24.678Z,0
2017-08-09T02:37:26.074Z,0
2017-08-09T02:38:27.471Z,0
2017-08-09T02:39:28.867Z,0
2017-08-09T02:40:30.263Z,0
2017-08-09T02:41:31.657Z,0
2017-08-09T02:42:33.054Z,0
2017-08-09T02:43:34.453Z,0
2017-08-09T02:44:35.846Z,0
2017-08-09T02:45:37.240Z,0
2017-08-09T02:46:38.637Z,0
2017-08-09T02:47:40.070Z,0
2017-08-09T02:48:41.460Z,0
2017-08-09T02:49:42.858Z,0
2017-08-09T02:50:44.256Z,0
2017-08-09T02:51:45.648Z,0
2017-08-09T02:52:47.044Z,0
2017-08-09T02:53:48.439Z,0
2017-08-09T02:54:49.834Z,0
2017-08-09T02:55:51.230Z,0
2017-08-09T02:56:52.627Z,0
2017-08-09T02:57:54.024Z,0
2017-08-09T02:58:55.418Z,0
2017-08-09T02:59:56.812Z,0
2017-08-09T03:00:58.208Z,0
2017-08-09T03:01:59.602Z,0
2017-08-09T03:03:00.998Z,0
2017-08-09T03:04:02.393Z,0
2017-08-09T03:05:03.787Z,0
2017-08-09T03:06:05.183Z,0
2017-08-09T03:07:06.578Z,0
2017-08-09T03:08:07.973Z,0
2017-08-09T03:09:09.368Z,0
2017-08-09T03:10:10.764Z,0
2017-08-09T03:11:12.157Z,0
2017-08-09T03:12:13.555Z,0
2017-08-09T03:13:14.951Z,0
2017-08-09T03:14:16.346Z,0
2017-08-09T03:15:17.741Z,0
2017-08-09T03:16:19.136Z,0
2017-08-09T03:17:20.532Z,0
2017-08-09T03:18:21.927Z,0
2017-08-09T03:19:23.326Z,0
2017-08-09T03:20:24.720Z,0
2017-08-09T03:21:26.115Z,0
2017-08-09T03:22:27.510Z,0
2017-08-09T03:23:28.906Z,0
2017-08-09T03:24:30.301Z,0
2017-08-09T03:25:31.697Z,0
2017-08-09T03:26:33.096Z,0
2017-08-09T03:27:34.493Z,0
2017-08-09T03:28:35.884Z,0
2017-08-09T03:29:37.279Z,0
2017-08-09T03:30:38.677Z,0
2017-08-09T03:31:40.070Z,0
2017-08-09T03:32:41.468Z,0
2017-08-09T03:33:42.866Z,0
2017-08-09T03:34:44.262Z,0
2017-08-09T03:35:45.655Z,0
2017-08-09T03:36:47.052Z,0
2017-08-09T03:37:48.448Z,0
2017-08-09T03:38:49.845Z,0
2017-08-09T03:39:51.243Z,0
2017-08-09T03:40:52.640Z,0
2017-08-09T03:41:54.042Z,0
2017-08-09T03:42:55.436Z,0
2017-08-09T03:43:56.833Z,0
2017-08-09T03:44:58.229Z,4
2017-08-09T03:45:59.624Z,4
2017-08-09T03:47:01.019Z,0
2017-08-09T03:48:02.416Z,0
2017-08-09T03:49:03.812Z,0
2017-08-09T03:50:05.205Z,4
2017-08-09T03:51:06.600Z,4
2017-08-09T03:52:07.994Z,4
2017-08-09T03:53:09.389Z,4
2017-08-09T03:54:10.787Z,4
2017-08-09T03:55:12.186Z,0
2017-08-09T03:56:13.579Z,4
2017-08-09T03:57:14.973Z,4
2017-08-09T03:58:16.370Z,4
2017-08-09T03:59:17.766Z,8
2017-08-09T04:00:19.162Z,8
2017-08-09T04:01:20.559Z,8
2017-08-09T04:02:21.957Z,12
2017-08-09T04:03:23.352Z,12
2017-08-09T04:04:24.747Z,16
2017-08-09T04:05:26.144Z,16
2017-08-09T04:06:27.539Z,16
2017-08-09T04:07:28.937Z,16
2017-08-09T04:08:30.334Z,20
2017-08-09T04:09:31.733Z,20
2017-08-09T04:10:33.130Z,16
2017-08-09T04:11:34.523Z,20
2017-08-09T04:12:35.921Z,24
2017-08-09T04:13:37.315Z,32
2017-08-09T04:14:38.726Z,36
2017-08-09T04:15:40.125Z,36
2017-08-09T04:16:41.522Z,44
2017-08-09T04:17:42.917Z,52
2017-08-09T04:18:44.312Z,52
2017-08-09T04:19:45.711Z,60
2017-08-09T04:20:47.118Z,60
2017-08-09T04:21:48.504Z,64
2017-08-09T04:22:49.945Z,76
2017-08-09T04:23:51.341Z,84
2017-08-09T04:24:52.737Z,96
2017-08-09T04:25:54.129Z,92
2017-08-09T04:26:55.531Z,100
2017-08-09T04:27:56.928Z,100
2017-08-09T04:28:58.324Z,112
2017-08-09T04:29:59.725Z,120
2017-08-09T04:31:01.124Z,116
2017-08-09T04:32:02.520Z,124
2017-08-09T04:33:03.916Z,132
2017-08-09T04:34:05.312Z,132
2017-08-09T04:35:06.712Z,144
2017-08-09T04:36:08.110Z,156
2017-08-09T04:37:09.537Z,164
2017-08-09T04:38:10.936Z,188
2017-08-09T04:39:12.336Z,220
2017-08-09T04:40:13.730Z,224
2017-08-09T04:41:15.136Z,208
2017-08-09T04:42:16.561Z,216
2017-08-09T04:43:17.962Z,212
2017-08-09T04:44:19.363Z,216
2017-08-09T04:45:20.838Z,212
2017-08-09T04:46:22.238Z,232
2017-08-09T04:47:23.635Z,204
2017-08-09T04:48:25.033Z,188
2017-08-09T04:49:26.457Z,200
2017-08-09T04:50:27.856Z,236
2017-08-09T04:51:29.257Z,264
2017-08-09T04:52:30.658Z,308
2017-08-09T04:53:32.063Z,316
2017-08-09T04:54:33.466Z,324
2017-08-09T04:55:34.965Z,352
2017-08-09T04:56:36.353Z,368
2017-08-09T04:57:37.753Z,436
2017-08-09T04:58:39.155Z,460
2017-08-09T04:59:40.553Z,496
2017-08-09T05:00:41.952Z,512
2017-08-09T05:01:43.350Z,532
2017-08-09T05:02:44.748Z,552
2017-08-09T05:03:46.149Z,552
2017-08-09T05:04:47.550Z,548
2017-08-09T05:05:48.955Z,600
2017-08-09T05:06:50.355Z,604
2017-08-09T05:07:51.752Z,660
2017-08-09T05:08:53.149Z,660
2017-08-09T05:09:54.550Z,688
2017-08-09T05:10:55.947Z,696
2017-08-09T05:11:57.349Z,724
2017-08-09T05:12:58.751Z,736
2017-08-09T05:14:00.149Z,844
2017-08-09T05:15:01.551Z,704
2017-08-09T05:16:02.946Z,648
2017-08-09T05:17:04.344Z,648
2017-08-09T05:18:05.741Z,632
2017-08-09T05:19:07.144Z,708
2017-08-09T05:20:08.542Z,744
2017-08-09T05:21:09.942Z,724
2017-08-09T05:22:11.341Z,876
2017-08-09T05:23:12.740Z,952
2017-08-09T05:24:14.139Z,1160
2017-08-09T05:25:15.540Z,1192
2017-08-09T05:26:16.942Z,1180
2017-08-09T05:27:18.342Z,1164
2017-08-09T05:28:19.747Z,1136
2017-08-09T05:29:21.142Z,1084
2017-08-09T05:30:22.538Z,1076
2017-08-09T05:31:23.939Z,1156
2017-08-09T05:32:25.340Z,1052
2017-08-09T05:33:26.740Z,1076
2017-08-09T05:34:28.142Z,1080
2017-08-09T05:35:29.578Z,960
2017-08-09T05:36:30.973Z,884
2017-08-09T05:37:32.371Z,840
2017-08-09T05:38:33.769Z,864
2017-08-09T05:39:35.167Z,888
2017-08-09T05:40:36.567Z,872
2017-08-09T05:41:37.967Z,836
2017-08-09T05:42:39.367Z,832
2017-08-09T05:43:40.770Z,844
2017-08-09T05:44:42.162Z,864
2017-08-09T05:45:43.562Z,892
2017-08-09T05:46:44.961Z,892
2017-08-09T05:47:46.561Z,876
2017-08-09T05:48:47.959Z,868
2017-08-09T05:49:49.361Z,840
2017-08-09T05:50:50.759Z,804
2017-08-09T05:51:52.186Z,820
2017-08-09T05:52:53.557Z,840
2017-08-09T05:53:54.992Z,860
2017-08-09T05:54:56.391Z,884
2017-08-09T05:55:57.790Z,904
2017-08-09T05:56:59.190Z,920
2017-08-09T05:58:00.588Z,920
2017-08-09T05:59:01.985Z,948
2017-08-09T06:00:03.384Z,1000
2017-08-09T06:01:04.784Z,1004
2017-08-09T06:02:06.186Z,1020
2017-08-09T06:03:07.589Z,1052
2017-08-09T06:04:08.989Z,1080
2017-08-09T06:05:10.390Z,1096
2017-08-09T06:06:11.788Z,1100
2017-08-09T06:07:13.189Z,1104
2017-08-09T06:08:14.589Z,1112
2017-08-09T06:09:15.988Z,1096
2017-08-09T06:10:17.392Z,1112
2017-08-09T06:11:18.795Z,1172
2017-08-09T06:12:20.193Z,1204
2017-08-09T06:13:21.591Z,1168
2017-08-09T06:14:22.990Z,1160
2017-08-09T06:15:24.391Z,1220
2017-08-09T06:16:25.793Z,1272
2017-08-09T06:17:27.194Z,1188
2017-08-09T06:18:28.597Z,1232
2017-08-09T06:19:29.998Z,1232
2017-08-09T06:20:31.397Z,1236
2017-08-09T06:21:32.796Z,1192
2017-08-09T06:22:34.195Z,1188
2017-08-09T06:23:35.596Z,1204
2017-08-09T06:24:37.000Z,1288
2017-08-09T06:25:38.402Z,1292
2017-08-09T06:26:39.805Z,1240
2017-08-09T06:27:41.204Z,1300
2017-08-09T06:28:42.604Z,1364
2017-08-09T06:29:44.004Z,1384
2017-08-09T06:30:45.402Z,1376
2017-08-09T06:31:46.807Z,1352
2017-08-09T06:32:48.205Z,1396
2017-08-09T06:33:49.602Z,1440
2017-08-09T06:34:51.004Z,1488
2017-08-09T06:35:52.403Z,1532
2017-08-09T06:36:53.806Z,1564
2017-08-09T06:37:55.205Z,1568
2017-08-09T06:38:56.608Z,1584
2017-08-09T06:39:58.008Z,1728
2017-08-09T06:40:59.405Z,1772
2017-08-09T06:42:00.802Z,1700
2017-08-09T06:43:02.203Z,1724
2017-08-09T06:44:03.600Z,1828
2017-08-09T06:45:05.002Z,2040
2017-08-09T06:46:06.404Z,2148
2017-08-09T06:47:07.807Z,2044
2017-08-09T06:48:09.204Z,1920
2017-08-09T06:49:10.604Z,1972
2017-08-09T06:50:12.004Z,1996
2017-08-09T06:51:13.406Z,1936
2017-08-09T06:52:14.805Z,2000
2017-08-09T06:53:16.234Z,2088
2017-08-09T06:54:17.639Z,2232
2017-08-09T06:55:19.039Z,2436
2017-08-09T06:56:20.435Z,2516
2017-08-09T06:57:21.837Z,2640
2017-08-09T06:58:23.238Z,2576
2017-08-09T06:59:24.642Z,2496
2017-08-09T07:00:26.047Z,2592
2017-08-09T07:01:27.454Z,2652
2017-08-09T07:02:28.852Z,2816
2017-08-09T07:03:30.252Z,2860
2017-08-09T07:04:31.652Z,2900
2017-08-09T07:05:33.051Z,2984
2017-08-09T07:06:34.457Z,2804
2017-08-09T07:07:35.859Z,2776
2017-08-09T07:08:37.261Z,2668
2017-08-09T07:09:38.667Z,2604
2017-08-09T07:10:40.068Z,2604
2017-08-09T07:11:41.470Z,2748
2017-08-09T07:12:42.872Z,2756
2017-08-09T07:13:44.274Z,2604
2017-08-09T07:14:45.675Z,2616
2017-08-09T07:15:47.081Z,2580
2017-08-09T07:16:48.480Z,2512
2017-08-09T07:17:49.883Z,2588
2017-08-09T07:18:51.283Z,2672
2017-08-09T07:19:52.686Z,2772
2017-08-09T07:20:54.087Z,2832
2017-08-09T07:21:55.493Z,2936
2017-08-09T07:22:56.893Z,3028
2017-08-09T07:23:58.296Z,3104
2017-08-09T07:24:59.697Z,3100
2017-08-09T07:26:01.098Z,3056
2017-08-09T07:27:02.524Z,2964
2017-08-09T07:28:03.926Z,2924
2017-08-09T07:29:05.332Z,2972
2017-08-09T07:30:06.736Z,3056
2017-08-09T07:31:08.136Z,3140
2017-08-09T07:32:09.534Z,3176
2017-08-09T07:33:10.944Z,3156
2017-08-09T07:34:12.346Z,3108
2017-08-09T07:35:13.748Z,3116
2017-08-09T07:36:15.151Z,3120
2017-08-09T07:37:16.557Z,3172
2017-08-09T07:38:17.958Z,3256
2017-08-09T07:39:19.357Z,3360
2017-08-09T07:40:20.762Z,3476
2017-08-09T07:41:22.163Z,3564
2017-08-09T07:42:23.564Z,3644
2017-08-09T07:43:24.973Z,3664
2017-08-09T07:44:26.377Z,3724
2017-08-09T07:45:27.778Z,3736
2017-08-09T07:46:29.180Z,3700
2017-08-09T07:47:30.585Z,3600
2017-08-09T07:48:31.983Z,3524
2017-08-09T07:49:33.388Z,3424
2017-08-09T07:50:34.799Z,3344
2017-08-09T07:51:36.195Z,3288
2017-08-09T07:52:37.598Z,3328
2017-08-09T07:53:38.997Z,3452
2017-08-09T07:54:40.397Z,3532
2017-08-09T07:55:41.803Z,3548
2017-08-09T07:56:43.205Z,3576
2017-08-09T07:57:44.610Z,3672
2017-08-09T07:58:46.015Z,3824
2017-08-09T07:59:47.417Z,3944
2017-08-09T08:00:48.818Z,4044
2017-08-09T08:01:50.219Z,4136
2017-08-09T08:02:51.624Z,4276
2017-08-09T08:03:53.027Z,4268
2017-08-09T08:04:54.430Z,4236
2017-08-09T08:05:55.833Z,4204
2017-08-09T08:06:57.233Z,4212
2017-08-09T08:07:58.636Z,4124
2017-08-09T08:09:00.037Z,4128
2017-08-09T08:10:01.438Z,4192
2017-08-09T08:11:02.842Z,4104
2017-08-09T08:12:04.244Z,4120
2017-08-09T08:13:05.648Z,4244
2017-08-09T08:14:07.049Z,4300
2017-08-09T08:15:08.463Z,4504
2017-08-09T08:16:09.867Z,4760
2017-08-09T08:17:11.267Z,5032
2017-08-09T08:18:12.672Z,4996
2017-08-09T08:19:14.076Z,5156
2017-08-09T08:20:15.477Z,4872
2017-08-09T08:21:16.880Z,4728
2017-08-09T08:22:18.279Z,4628
2017-08-09T08:23:19.683Z,4448
2017-08-09T08:24:21.084Z,4476
2017-08-09T08:25:22.488Z,4488
2017-08-09T08:26:23.893Z,4764
2017-08-09T08:27:25.302Z,4896
2017-08-09T08:28:26.698Z,5092
2017-08-09T08:29:28.100Z,5392
2017-08-09T08:30:29.501Z,5620
2017-08-09T08:31:30.905Z,5740
2017-08-09T08:32:32.316Z,5344
2017-08-09T08:33:33.720Z,5204
2017-08-09T08:34:35.126Z,5612
2017-08-09T08:35:36.527Z,5656
2017-08-09T08:36:37.931Z,5660
2017-08-09T08:37:39.333Z,5436
2017-08-09T08:38:40.735Z,4928
2017-08-09T08:39:42.138Z,4428
2017-08-09T08:40:43.544Z,4300
2017-08-09T08:41:44.951Z,4136
2017-08-09T08:42:46.354Z,4268
2017-08-09T08:43:47.754Z,4488
2017-08-09T08:44:49.159Z,4656
2017-08-09T08:45:50.560Z,4476
2017-08-09T08:46:51.965Z,4140
2017-08-09T08:47:53.367Z,4440
2017-08-09T08:48:54.773Z,4532
2017-08-09T08:49:56.177Z,5332
2017-08-09T08:50:57.578Z,4888
2017-08-09T08:51:58.979Z,5188
2017-08-09T08:53:00.382Z,5084
2017-08-09T08:54:01.787Z,4820
2017-08-09T08:55:03.193Z,4968
2017-08-09T08:56:04.598Z,4680
2017-08-09T08:57:06.006Z,5556
2017-08-09T08:58:07.433Z,5764
2017-08-09T08:59:08.836Z,5988
2017-08-09T09:00:10.242Z,5816
2017-08-09T09:01:11.644Z,6128
2017-08-09T09:02:14.962Z,6016
2017-08-09T09:03:16.367Z,5732
2017-08-09T09:04:17.771Z,5992
2017-08-09T09:05:19.171Z,6412
2017-08-09T09:06:20.574Z,6608
2017-08-09T09:07:21.976Z,6772
2017-08-09T09:08:23.382Z,6896
2017-08-09T09:09:24.785Z,6760
2017-08-09T09:10:26.192Z,6244
2017-08-09T09:11:27.595Z,6020
2017-08-09T09:12:28.996Z,6024
2017-08-09T09:13:30.398Z,5600
2017-08-09T09:14:31.801Z,6084
2017-08-09T09:15:33.205Z,5848
2017-08-09T09:16:34.612Z,5620
2017-08-09T09:17:36.015Z,5040
2017-08-09T09:18:37.416Z,4656
2017-08-09T09:19:38.818Z,4544
2017-08-09T09:20:40.223Z,4612
2017-08-09T09:21:41.626Z,4604
2017-08-09T09:22:43.031Z,4408
2017-08-09T09:23:44.437Z,4296
2017-08-09T09:24:45.844Z,4432
2017-08-09T09:25:47.244Z,4436
2017-08-09T09:26:48.646Z,4580
2017-08-09T09:27:50.048Z,4548
2017-08-09T09:28:51.449Z,4380
2017-08-09T09:29:52.857Z,4376
2017-08-09T09:30:54.261Z,4476
2017-08-09T09:31:55.666Z,4612
2017-08-09T09:32:57.067Z,4812
2017-08-09T09:33:58.469Z,5136
2017-08-09T09:34:59.871Z,5984
2017-08-09T09:36:01.275Z,6216
2017-08-09T09:37:02.679Z,5316
2017-08-09T09:38:04.087Z,6052
2017-08-09T09:39:05.493Z,6500
2017-08-09T09:40:06.894Z,7228
2017-08-09T09:41:08.297Z,7188
2017-08-09T09:42:09.704Z,6560
2017-08-09T09:43:11.101Z,6436
2017-08-09T09:44:12.506Z,7248
2017-08-09T09:45:13.916Z,7112
2017-08-09T09:46:15.315Z,7456
2017-08-09T09:47:16.720Z,7568
2017-08-09T09:48:18.125Z,11104
2017-08-09T09:49:19.527Z,9324
2017-08-09T09:50:20.928Z,5700
2017-08-09T09:51:22.337Z,5040
2017-08-09T09:52:23.742Z,4760
2017-08-09T09:53:25.144Z,4868
2017-08-09T09:54:26.547Z,5012
2017-08-09T09:55:27.952Z,5036
2017-08-09T09:56:29.354Z,4820
2017-08-09T09:57:30.762Z,5020
2017-08-09T09:58:32.170Z,5512
2017-08-09T09:59:33.572Z,6216
2017-08-09T10:00:34.975Z,7644
2017-08-09T10:01:36.379Z,8036
2017-08-09T10:02:37.811Z,8484
2017-08-09T10:03:39.216Z,8224
2017-08-09T10:04:40.619Z,6396
2017-08-09T10:05:42.025Z,5652
2017-08-09T10:06:43.440Z,5888
2017-08-09T10:07:44.851Z,6832
2017-08-09T10:08:46.252Z,6416
2017-08-09T10:09:47.656Z,8588
2017-08-09T10:10:49.061Z,6664
2017-08-09T10:11:50.464Z,6856
2017-08-09T10:12:51.867Z,7788
2017-08-09T10:13:53.281Z,6344
2017-08-09T10:14:54.688Z,5528
2017-08-09T10:15:56.092Z,4948
2017-08-09T10:16:57.494Z,5100
2017-08-09T10:17:58.900Z,5584
2017-08-09T10:19:00.302Z,7248
2017-08-09T10:20:01.708Z,8764
2017-08-09T10:21:03.112Z,7628
2017-08-09T10:22:04.517Z,7480
2017-08-09T10:23:05.922Z,8096
2017-08-09T10:24:07.323Z,7912
2017-08-09T10:25:08.728Z,8840
2017-08-09T10:26:10.135Z,9248
2017-08-09T10:27:11.568Z,9108
2017-08-09T10:28:12.973Z,10116
2017-08-09T10:29:14.384Z,9732
2017-08-09T10:30:15.782Z,8280
2017-08-09T10:31:17.190Z,9060
2017-08-09T10:32:18.596Z,11380
2017-08-09T10:33:20.000Z,10420
2017-08-09T10:34:21.412Z,7856
2017-08-09T10:35:22.815Z,9552
2017-08-09T10:36:24.230Z,9792
2017-08-09T10:37:25.627Z,11116
2017-08-09T10:38:27.028Z,6248
2017-08-09T10:39:28.432Z,6276
2017-08-09T10:40:29.836Z,6196
2017-08-09T10:41:31.238Z,6332
2017-08-09T10:42:32.644Z,7892
2017-08-09T10:43:34.062Z,8556
2017-08-09T10:44:35.465Z,9064
2017-08-09T10:45:36.873Z,8604
2017-08-09T10:46:38.268Z,7376
2017-08-09T10:47:39.672Z,6344
2017-08-09T10:48:41.081Z,10680
2017-08-09T10:49:42.487Z,14456
2017-08-09T10:50:43.890Z,6484
2017-08-09T10:51:45.297Z,13776
2017-08-09T10:52:46.700Z,7420
2017-08-09T10:53:48.102Z,5148
2017-08-09T10:54:49.507Z,5568
2017-08-09T10:55:50.910Z,9192
2017-08-09T10:56:52.317Z,18464
2017-08-09T10:57:53.725Z,18176
2017-08-09T10:58:55.128Z,12988
2017-08-09T10:59:56.537Z,11008
2017-08-09T11:00:57.939Z,11600
2017-08-09T11:01:59.353Z,12164
2017-08-09T11:03:00.758Z,7672
2017-08-09T11:04:02.164Z,8708
2017-08-09T11:05:03.572Z,8384
2017-08-09T11:06:04.972Z,7656
2017-08-09T11:07:06.376Z,8448
2017-08-09T11:08:07.780Z,11396
2017-08-09T11:09:09.189Z,13480
2017-08-09T11:10:10.595Z,20064
2017-08-09T11:11:12.003Z,22144
2017-08-09T11:12:13.416Z,25312
2017-08-09T11:13:14.820Z,25824
2017-08-09T11:14:16.224Z,27776
2017-08-09T11:15:17.634Z,31488
2017-08-09T11:16:19.040Z,33536
2017-08-09T11:17:20.449Z,31072
2017-08-09T11:18:21.868Z,17952
2017-08-09T11:19:23.269Z,24288
2017-08-09T11:20:24.677Z,9176
2017-08-09T11:21:26.078Z,14868
2017-08-09T11:22:27.490Z,24576
2017-08-09T11:23:28.895Z,14008
2017-08-09T11:24:30.303Z,31296
2017-08-09T11:25:31.714Z,35264
2017-08-09T11:26:33.125Z,34208
2017-08-09T11:27:34.535Z,33952
2017-08-09T11:28:35.937Z,15196
2017-08-09T11:29:37.346Z,16640
2017-08-09T11:30:38.753Z,8276
2017-08-09T11:31:40.158Z,6608
2017-08-09T11:32:41.567Z,5860
2017-08-09T11:33:42.976Z,4884
2017-08-09T11:34:44.382Z,4988
2017-08-09T11:35:45.788Z,5464
2017-08-09T11:36:47.195Z,5708
2017-08-09T11:37:48.601Z,6708
2017-08-09T11:38:50.008Z,9796
2017-08-09T11:39:51.420Z,12028
2017-08-09T11:40:52.830Z,11792
2017-08-09T11:41:54.234Z,7420
2017-08-09T11:42:55.642Z,6608
2017-08-09T11:43:57.049Z,6332
2017-08-09T11:44:58.456Z,10140
2017-08-09T11:45:59.869Z,27968
2017-08-09T11:47:01.280Z,18592
2017-08-09T11:48:02.690Z,26880
2017-08-09T11:49:04.096Z,29664
2017-08-09T11:50:05.504Z,5796
2017-08-09T11:51:06.911Z,13084
2017-08-09T11:52:08.317Z,6256
2017-08-09T11:53:09.723Z,7992
2017-08-09T11:54:11.132Z,8676
2017-08-09T11:55:12.540Z,8184
2017-08-09T11:56:13.943Z,4704
2017-08-09T11:57:15.347Z,3884
2017-08-09T11:58:16.752Z,3676
2017-08-09T11:59:18.157Z,3856
2017-08-09T12:00:19.565Z,4292
2017-08-09T12:01:20.972Z,4808
2017-08-09T12:02:22.384Z,5824
2017-08-09T12:03:23.790Z,7112
2017-08-09T12:04:25.197Z,13632
2017-08-09T12:05:26.604Z,10096
2017-08-09T12:06:28.010Z,18112
2017-08-09T12:07:29.418Z,28992
2017-08-09T12:08:30.828Z,16308
2017-08-09T12:09:32.235Z,9336
2017-08-09T12:10:33.640Z,16020
2017-08-09T12:11:35.048Z,29376
2017-08-09T12:12:36.458Z,28864
2017-08-09T12:13:37.861Z,19872
2017-08-09T12:14:39.273Z,24288
2017-08-09T12:15:40.685Z,24992
2017-08-09T12:16:42.096Z,25184
2017-08-09T12:17:43.505Z,27744
2017-08-09T12:18:44.913Z,29312
2017-08-09T12:19:46.316Z,30240
2017-08-09T12:20:47.725Z,30304
2017-08-09T12:21:49.134Z,16168
2017-08-09T12:22:50.541Z,7328
2017-08-09T12:23:51.953Z,29504
2017-08-09T12:24:53.358Z,25504
2017-08-09T12:25:54.770Z,26176
2017-08-09T12:26:56.181Z,28096
2017-08-09T12:27:57.590Z,27776
2017-08-09T12:28:58.999Z,29824
2017-08-09T12:30:00.411Z,30208
2017-08-09T12:31:01.825Z,30336
2017-08-09T12:32:03.236Z,29152
2017-08-09T12:33:04.643Z,26624
2017-08-09T12:34:06.057Z,26432
2017-08-09T12:35:07.469Z,12824
2017-08-09T12:36:08.878Z,20064
2017-08-09T12:37:10.287Z,7024
2017-08-09T12:38:11.697Z,7628
2017-08-09T12:39:13.108Z,18080
2017-08-09T12:40:14.515Z,30144
2017-08-09T12:41:15.923Z,6760
2017-08-09T12:42:17.332Z,5932
2017-08-09T12:43:18.742Z,5236
2017-08-09T12:44:20.151Z,4856
2017-08-09T12:45:21.558Z,4752
2017-08-09T12:46:22.969Z,4556
2017-08-09T12:47:24.377Z,4200
2017-08-09T12:48:25.785Z,3736
2017-08-09T12:49:27.192Z,3572
2017-08-09T12:50:28.601Z,3080
2017-08-09T12:51:30.011Z,2640
2017-08-09T12:52:31.420Z,2384
2017-08-09T12:53:32.825Z,2360
2017-08-09T12:54:34.229Z,2316
2017-08-09T12:55:35.637Z,2148
2017-08-09T12:56:37.041Z,2012
2017-08-09T12:57:38.449Z,1848
2017-08-09T12:58:39.858Z,1760
2017-08-09T12:59:41.264Z,1824
2017-08-09T13:00:42.670Z,2048
2017-08-09T13:01:44.075Z,2500
2017-08-09T13:02:45.480Z,3252
2017-08-09T13:03:46.888Z,4096
2017-08-09T13:04:48.295Z,5776
2017-08-09T13:05:49.702Z,13348
2017-08-09T13:06:51.111Z,15524
2017-08-09T13:07:52.521Z,17440
2017-08-09T13:08:53.921Z,8468
2017-08-09T13:09:55.330Z,7036
2017-08-09T13:10:56.735Z,6540
2017-08-09T13:11:58.147Z,6088
2017-08-09T13:12:59.554Z,5804
2017-08-09T13:14:00.982Z,6096
2017-08-09T13:15:02.367Z,30368
2017-08-09T13:16:03.787Z,31456
2017-08-09T13:17:05.192Z,25664
2017-08-09T13:18:06.600Z,27168
2017-08-09T13:19:08.008Z,29408
2017-08-09T13:20:09.418Z,30720
2017-08-09T13:21:10.828Z,26528
2017-08-09T13:22:12.235Z,24608
2017-08-09T13:23:13.642Z,24320
2017-08-09T13:24:15.048Z,22432
2017-08-09T13:25:16.456Z,19968
2017-08-09T13:26:17.866Z,22688
2017-08-09T13:27:19.277Z,22880
2017-08-09T13:28:20.686Z,19680
2017-08-09T13:29:22.093Z,20512
2017-08-09T13:30:23.500Z,10732
2017-08-09T13:31:24.939Z,12096
2017-08-09T13:32:26.351Z,10188
2017-08-09T13:33:27.756Z,10180
2017-08-09T13:34:29.167Z,10560
2017-08-09T13:35:30.580Z,17056
2017-08-09T13:36:31.984Z,19008
2017-08-09T13:37:33.392Z,20896
2017-08-09T13:38:34.799Z,24096
2017-08-09T13:39:36.209Z,18528
2017-08-09T13:40:37.620Z,17536
2017-08-09T13:41:39.029Z,21664
2017-08-09T13:42:40.438Z,6844
2017-08-09T13:43:41.842Z,6356
2017-08-09T13:44:43.252Z,9260
2017-08-09T13:45:44.659Z,6988
2017-08-09T13:46:46.066Z,18496
2017-08-09T13:47:47.476Z,19520
2017-08-09T13:48:48.886Z,15936
2017-08-09T13:49:50.293Z,6416
2017-08-09T13:50:51.700Z,5556
2017-08-09T13:51:53.107Z,6460
2017-08-09T13:52:54.512Z,21888
2017-08-09T13:53:55.925Z,24256
2017-08-09T13:54:57.332Z,23488
2017-08-09T13:55:58.740Z,24544
2017-08-09T13:57:00.159Z,25376
2017-08-09T13:58:01.570Z,27392
2017-08-09T13:59:02.978Z,27136
2017-08-09T14:00:04.385Z,26400
2017-08-09T14:01:05.791Z,25536
2017-08-09T14:02:07.204Z,25088